sensor_id;sensor_type;location;lat;lon;timestamp;P1;durP1;ratioP1;P2;durP2;ratioP2
15858;SDS011;8029;52.202;7.308;2023-02-21T00:01:52;17.00;;;14.45;;
15858;SDS011;8029;52.202;7.308;2023-02-21T00:04:37;13.80;;;12.40;;
15858;SDS011;8029;52.202;7.308;2023-02-21T00:07:21;15.60;;;13.30;;
15858;SDS011;8029;52.202;7.308;2023-02-21T00:10:06;14.73;;;12.90;;
15858;SDS011;8029;52.202;7.308;2023-02-21T00:12:51;17.27;;;15.05;;
15858;SDS011;8029;52.202;7.308;2023-02-21T00:15:36;14.88;;;12.98;;
15858;SDS011;8029;52.202;7.308;2023-02-21T00:18:20;15.50;;;13.88;;
15858;SDS011;8029;52.202;7.308;2023-02-21T00:21:05;22.35;;;15.07;;
15858;SDS011;8029;52.202;7.308;2023-02-21T00:23:49;19.08;;;15.07;;
15858;SDS011;8029;52.202;7.308;2023-02-21T00:26:35;17.48;;;14.05;;
15858;SDS011;8029;52.202;7.308;2023-02-21T00:29:19;19.08;;;14.63;;
15858;SDS011;8029;52.202;7.308;2023-02-21T00:32:04;16.63;;;13.82;;
15858;SDS011;8029;52.202;7.308;2023-02-21T00:34:49;21.20;;;12.95;;
15858;SDS011;8029;52.202;7.308;2023-02-21T00:37:33;19.17;;;15.43;;
15858;SDS011;8029;52.202;7.308;2023-02-21T00:40:18;17.55;;;13.10;;
15858;SDS011;8029;52.202;7.308;2023-02-21T00:43:03;13.65;;;12.13;;
15858;SDS011;8029;52.202;7.308;2023-02-21T00:45:47;14.25;;;12.32;;
15858;SDS011;8029;52.202;7.308;2023-02-21T00:48:33;17.48;;;13.85;;
15858;SDS011;8029;52.202;7.308;2023-02-21T00:51:18;15.05;;;12.75;;
15858;SDS011;8029;52.202;7.308;2023-02-21T00:54:02;14.63;;;13.05;;
15858;SDS011;8029;52.202;7.308;2023-02-21T00:56:47;25.45;;;14.32;;
15858;SDS011;8029;52.202;7.308;2023-02-21T00:59:31;14.55;;;13.02;;
15858;SDS011;8029;52.202;7.308;2023-02-21T01:02:16;14.75;;;12.70;;
15858;SDS011;8029;52.202;7.308;2023-02-21T01:05:01;16.30;;;12.05;;
15858;SDS011;8029;52.202;7.308;2023-02-21T01:07:45;22.35;;;13.73;;
15858;SDS011;8029;52.202;7.308;2023-02-21T01:10:30;13.90;;;12.10;;
15858;SDS011;8029;52.202;7.308;2023-02-21T01:13:14;19.40;;;14.05;;
15858;SDS011;8029;52.202;7.308;2023-02-21T01:15:59;15.50;;;13.40;;
15858;SDS011;8029;52.202;7.308;2023-02-21T01:18:44;21.98;;;13.02;;
15858;SDS011;8029;52.202;7.308;2023-02-21T01:21:28;22.25;;;12.15;;
15858;SDS011;8029;52.202;7.308;2023-02-21T01:24:13;14.63;;;12.07;;
15858;SDS011;8029;52.202;7.308;2023-02-21T01:26:59;17.85;;;13.00;;
15858;SDS011;8029;52.202;7.308;2023-02-21T01:29:44;50.28;;;14.73;;
15858;SDS011;8029;52.202;7.308;2023-02-21T01:32:28;24.75;;;14.90;;
15858;SDS011;8029;52.202;7.308;2023-02-21T01:35:13;18.33;;;12.55;;
15858;SDS011;8029;52.202;7.308;2023-02-21T01:37:58;18.27;;;13.05;;
15858;SDS011;8029;52.202;7.308;2023-02-21T01:40:42;22.38;;;13.98;;
15858;SDS011;8029;52.202;7.308;2023-02-21T01:43:27;15.05;;;13.45;;
15858;SDS011;8029;52.202;7.308;2023-02-21T01:46:17;14.60;;;12.98;;
15858;SDS011;8029;52.202;7.308;2023-02-21T01:49:04;15.63;;;13.80;;
15858;SDS011;8029;52.202;7.308;2023-02-21T01:51:50;16.77;;;13.60;;
15858;SDS011;8029;52.202;7.308;2023-02-21T01:54:37;23.42;;;14.80;;
15858;SDS011;8029;52.202;7.308;2023-02-21T01:57:23;14.98;;;13.40;;
15858;SDS011;8029;52.202;7.308;2023-02-21T02:00:08;24.67;;;16.48;;
15858;SDS011;8029;52.202;7.308;2023-02-21T02:02:58;18.48;;;15.27;;
15858;SDS011;8029;52.202;7.308;2023-02-21T02:06:06;17.23;;;13.45;;
15858;SDS011;8029;52.202;7.308;2023-02-21T02:08:49;14.98;;;13.18;;
15858;SDS011;8029;52.202;7.308;2023-02-21T02:17:04;16.88;;;13.60;;
15858;SDS011;8029;52.202;7.308;2023-02-21T02:24:44;18.95;;;14.45;;
15858;SDS011;8029;52.202;7.308;2023-02-21T02:35:16;35.72;;;18.58;;
15858;SDS011;8029;52.202;7.308;2023-02-21T02:37:58;15.82;;;13.90;;
15858;SDS011;8029;52.202;7.308;2023-02-21T02:45:42;20.67;;;17.13;;
15858;SDS011;8029;52.202;7.308;2023-02-21T02:48:19;25.13;;;17.42;;
15858;SDS011;8029;52.202;7.308;2023-02-21T02:50:46;22.92;;;18.13;;
15858;SDS011;8029;52.202;7.308;2023-02-21T02:53:15;22.52;;;17.60;;
15858;SDS011;8029;52.202;7.308;2023-02-21T02:55:51;22.13;;;15.70;;
15858;SDS011;8029;52.202;7.308;2023-02-21T02:58:19;15.27;;;13.70;;
15858;SDS011;8029;52.202;7.308;2023-02-21T03:00:48;19.38;;;15.60;;
15858;SDS011;8029;52.202;7.308;2023-02-21T03:05:49;17.00;;;15.15;;
15858;SDS011;8029;52.202;7.308;2023-02-21T03:08:26;20.55;;;16.15;;
15858;SDS011;8029;52.202;7.308;2023-02-21T03:11:00;17.45;;;14.00;;
15858;SDS011;8029;52.202;7.308;2023-02-21T03:16:22;20.77;;;16.77;;
15858;SDS011;8029;52.202;7.308;2023-02-21T03:18:54;21.13;;;16.73;;
15858;SDS011;8029;52.202;7.308;2023-02-21T03:21:23;19.50;;;15.52;;
15858;SDS011;8029;52.202;7.308;2023-02-21T03:23:50;20.70;;;15.60;;
15858;SDS011;8029;52.202;7.308;2023-02-21T03:26:18;19.58;;;16.58;;
15858;SDS011;8029;52.202;7.308;2023-02-21T03:28:44;18.77;;;16.98;;
15858;SDS011;8029;52.202;7.308;2023-02-21T03:31:11;18.90;;;16.92;;
15858;SDS011;8029;52.202;7.308;2023-02-21T03:33:38;23.98;;;17.83;;
15858;SDS011;8029;52.202;7.308;2023-02-21T03:36:05;20.75;;;17.73;;
15858;SDS011;8029;52.202;7.308;2023-02-21T03:38:32;26.63;;;16.30;;
15858;SDS011;8029;52.202;7.308;2023-02-21T03:40:59;22.23;;;18.25;;
15858;SDS011;8029;52.202;7.308;2023-02-21T03:43:25;19.95;;;17.65;;
15858;SDS011;8029;52.202;7.308;2023-02-21T03:45:51;21.52;;;18.20;;
15858;SDS011;8029;52.202;7.308;2023-02-21T03:48:17;19.85;;;16.52;;
15858;SDS011;8029;52.202;7.308;2023-02-21T03:50:43;23.48;;;18.38;;
15858;SDS011;8029;52.202;7.308;2023-02-21T03:53:09;25.23;;;17.38;;
15858;SDS011;8029;52.202;7.308;2023-02-21T03:55:35;18.95;;;16.52;;
15858;SDS011;8029;52.202;7.308;2023-02-21T03:58:01;21.55;;;19.23;;
15858;SDS011;8029;52.202;7.308;2023-02-21T04:00:27;21.48;;;17.60;;
15858;SDS011;8029;52.202;7.308;2023-02-21T04:02:53;19.50;;;16.67;;
15858;SDS011;8029;52.202;7.308;2023-02-21T04:05:20;23.05;;;16.77;;
15858;SDS011;8029;52.202;7.308;2023-02-21T04:07:46;20.80;;;16.25;;
15858;SDS011;8029;52.202;7.308;2023-02-21T04:10:12;20.85;;;17.38;;
15858;SDS011;8029;52.202;7.308;2023-02-21T04:12:38;30.25;;;19.40;;
15858;SDS011;8029;52.202;7.308;2023-02-21T04:15:04;25.20;;;17.75;;
15858;SDS011;8029;52.202;7.308;2023-02-21T04:17:30;25.58;;;20.23;;
15858;SDS011;8029;52.202;7.308;2023-02-21T04:19:56;24.95;;;18.85;;
15858;SDS011;8029;52.202;7.308;2023-02-21T04:22:22;19.52;;;17.50;;
15858;SDS011;8029;52.202;7.308;2023-02-21T04:24:48;18.02;;;16.08;;
15858;SDS011;8029;52.202;7.308;2023-02-21T04:27:15;22.13;;;19.23;;
15858;SDS011;8029;52.202;7.308;2023-02-21T04:29:41;27.60;;;18.50;;
15858;SDS011;8029;52.202;7.308;2023-02-21T04:32:08;29.45;;;18.13;;
15858;SDS011;8029;52.202;7.308;2023-02-21T04:34:34;21.38;;;17.30;;
15858;SDS011;8029;52.202;7.308;2023-02-21T04:37:00;28.08;;;19.17;;
15858;SDS011;8029;52.202;7.308;2023-02-21T04:39:26;30.50;;;21.08;;
15858;SDS011;8029;52.202;7.308;2023-02-21T04:41:52;17.80;;;15.95;;
15858;SDS011;8029;52.202;7.308;2023-02-21T04:44:18;22.35;;;19.58;;
15858;SDS011;8029;52.202;7.308;2023-02-21T04:46:44;23.50;;;19.80;;
15858;SDS011;8029;52.202;7.308;2023-02-21T04:49:13;21.83;;;19.00;;
15858;SDS011;8029;52.202;7.308;2023-02-21T04:51:39;21.30;;;17.40;;
15858;SDS011;8029;52.202;7.308;2023-02-21T04:54:05;36.83;;;20.15;;
15858;SDS011;8029;52.202;7.308;2023-02-21T04:56:32;19.02;;;16.70;;
15858;SDS011;8029;52.202;7.308;2023-02-21T04:58:58;28.02;;;20.05;;
15858;SDS011;8029;52.202;7.308;2023-02-21T05:01:27;33.38;;;21.98;;
15858;SDS011;8029;52.202;7.308;2023-02-21T05:03:54;29.83;;;19.88;;
15858;SDS011;8029;52.202;7.308;2023-02-21T05:06:21;27.13;;;19.63;;
15858;SDS011;8029;52.202;7.308;2023-02-21T05:08:47;27.45;;;21.52;;
15858;SDS011;8029;52.202;7.308;2023-02-21T05:11:13;23.67;;;17.35;;
15858;SDS011;8029;52.202;7.308;2023-02-21T05:13:39;20.75;;;18.02;;
15858;SDS011;8029;52.202;7.308;2023-02-21T05:16:06;24.02;;;21.02;;
15858;SDS011;8029;52.202;7.308;2023-02-21T05:18:32;31.02;;;22.80;;
15858;SDS011;8029;52.202;7.308;2023-02-21T05:20:58;23.08;;;19.85;;
15858;SDS011;8029;52.202;7.308;2023-02-21T05:23:25;27.20;;;18.90;;
15858;SDS011;8029;52.202;7.308;2023-02-21T05:26:01;23.60;;;18.35;;
15858;SDS011;8029;52.202;7.308;2023-02-21T05:28:27;26.83;;;20.30;;
15858;SDS011;8029;52.202;7.308;2023-02-21T05:30:53;26.15;;;19.90;;
15858;SDS011;8029;52.202;7.308;2023-02-21T05:33:19;25.55;;;19.77;;
15858;SDS011;8029;52.202;7.308;2023-02-21T05:35:45;24.10;;;19.55;;
15858;SDS011;8029;52.202;7.308;2023-02-21T05:38:12;27.23;;;19.85;;
15858;SDS011;8029;52.202;7.308;2023-02-21T05:40:38;22.00;;;17.58;;
15858;SDS011;8029;52.202;7.308;2023-02-21T05:43:04;24.92;;;17.92;;
15858;SDS011;8029;52.202;7.308;2023-02-21T05:45:30;22.48;;;17.45;;
15858;SDS011;8029;52.202;7.308;2023-02-21T05:47:56;19.02;;;16.77;;
15858;SDS011;8029;52.202;7.308;2023-02-21T05:50:25;22.67;;;17.33;;
15858;SDS011;8029;52.202;7.308;2023-02-21T05:52:51;28.23;;;19.52;;
15858;SDS011;8029;52.202;7.308;2023-02-21T05:55:17;23.50;;;17.67;;
15858;SDS011;8029;52.202;7.308;2023-02-21T05:57:43;25.27;;;18.35;;
15858;SDS011;8029;52.202;7.308;2023-02-21T06:00:20;24.70;;;17.52;;
15858;SDS011;8029;52.202;7.308;2023-02-21T06:02:47;26.13;;;18.20;;
15858;SDS011;8029;52.202;7.308;2023-02-21T06:05:14;46.90;;;19.83;;
15858;SDS011;8029;52.202;7.308;2023-02-21T06:07:41;25.35;;;18.95;;
15858;SDS011;8029;52.202;7.308;2023-02-21T06:10:07;22.55;;;15.88;;
15858;SDS011;8029;52.202;7.308;2023-02-21T06:12:33;27.40;;;18.40;;
15858;SDS011;8029;52.202;7.308;2023-02-21T06:14:59;19.83;;;15.95;;
15858;SDS011;8029;52.202;7.308;2023-02-21T06:17:25;19.88;;;16.05;;
15858;SDS011;8029;52.202;7.308;2023-02-21T06:19:51;23.83;;;15.02;;
15858;SDS011;8029;52.202;7.308;2023-02-21T06:22:18;25.08;;;17.85;;
15858;SDS011;8029;52.202;7.308;2023-02-21T06:24:43;19.23;;;15.13;;
15858;SDS011;8029;52.202;7.308;2023-02-21T06:27:09;22.75;;;15.93;;
15858;SDS011;8029;52.202;7.308;2023-02-21T06:29:35;23.42;;;13.77;;
15858;SDS011;8029;52.202;7.308;2023-02-21T06:32:01;16.98;;;14.65;;
15858;SDS011;8029;52.202;7.308;2023-02-21T06:34:27;19.73;;;14.10;;
15858;SDS011;8029;52.202;7.308;2023-02-21T06:36:54;20.23;;;14.48;;
15858;SDS011;8029;52.202;7.308;2023-02-21T06:39:20;18.85;;;15.27;;
15858;SDS011;8029;52.202;7.308;2023-02-21T06:41:47;27.02;;;14.88;;
15858;SDS011;8029;52.202;7.308;2023-02-21T06:44:13;21.50;;;14.85;;
15858;SDS011;8029;52.202;7.308;2023-02-21T06:46:40;17.33;;;14.75;;
15858;SDS011;8029;52.202;7.308;2023-02-21T06:49:06;15.70;;;13.80;;
15858;SDS011;8029;52.202;7.308;2023-02-21T06:51:33;18.83;;;14.85;;
15858;SDS011;8029;52.202;7.308;2023-02-21T06:53:59;26.45;;;15.98;;
15858;SDS011;8029;52.202;7.308;2023-02-21T06:56:25;17.52;;;13.27;;
15858;SDS011;8029;52.202;7.308;2023-02-21T06:58:52;15.45;;;13.80;;
15858;SDS011;8029;52.202;7.308;2023-02-21T07:01:18;16.65;;;14.75;;
15858;SDS011;8029;52.202;7.308;2023-02-21T07:03:44;14.30;;;12.50;;
15858;SDS011;8029;52.202;7.308;2023-02-21T07:06:11;15.93;;;13.10;;
15858;SDS011;8029;52.202;7.308;2023-02-21T07:08:37;16.77;;;11.48;;
15858;SDS011;8029;52.202;7.308;2023-02-21T07:11:03;19.27;;;14.23;;
15858;SDS011;8029;52.202;7.308;2023-02-21T07:13:30;15.55;;;12.27;;
15858;SDS011;8029;52.202;7.308;2023-02-21T07:15:56;14.68;;;12.13;;
15858;SDS011;8029;52.202;7.308;2023-02-21T07:18:24;12.95;;;11.65;;
15858;SDS011;8029;52.202;7.308;2023-02-21T07:20:50;18.52;;;13.25;;
15858;SDS011;8029;52.202;7.308;2023-02-21T07:23:16;20.85;;;13.38;;
15858;SDS011;8029;52.202;7.308;2023-02-21T07:25:42;23.02;;;13.75;;
15858;SDS011;8029;52.202;7.308;2023-02-21T07:28:09;19.42;;;14.48;;
15858;SDS011;8029;52.202;7.308;2023-02-21T07:30:35;19.42;;;13.48;;
15858;SDS011;8029;52.202;7.308;2023-02-21T07:33:01;21.75;;;14.73;;
15858;SDS011;8029;52.202;7.308;2023-02-21T07:35:27;21.15;;;16.35;;
15858;SDS011;8029;52.202;7.308;2023-02-21T07:37:52;17.10;;;15.00;;
15858;SDS011;8029;52.202;7.308;2023-02-21T07:40:19;19.15;;;14.15;;
15858;SDS011;8029;52.202;7.308;2023-02-21T07:42:45;26.60;;;15.98;;
15858;SDS011;8029;52.202;7.308;2023-02-21T07:45:13;30.25;;;15.38;;
15858;SDS011;8029;52.202;7.308;2023-02-21T07:47:39;22.02;;;16.30;;
15858;SDS011;8029;52.202;7.308;2023-02-21T07:50:07;22.90;;;16.63;;
15858;SDS011;8029;52.202;7.308;2023-02-21T07:52:33;19.08;;;15.57;;
15858;SDS011;8029;52.202;7.308;2023-02-21T07:54:59;25.35;;;17.33;;
15858;SDS011;8029;52.202;7.308;2023-02-21T07:57:25;23.42;;;17.92;;
15858;SDS011;8029;52.202;7.308;2023-02-21T07:59:51;24.92;;;18.27;;
15858;SDS011;8029;52.202;7.308;2023-02-21T08:02:17;26.45;;;17.58;;
15858;SDS011;8029;52.202;7.308;2023-02-21T08:04:43;30.08;;;17.90;;
15858;SDS011;8029;52.202;7.308;2023-02-21T08:07:09;23.02;;;16.63;;
15858;SDS011;8029;52.202;7.308;2023-02-21T08:09:35;22.83;;;17.23;;
15858;SDS011;8029;52.202;7.308;2023-02-21T08:12:02;20.15;;;17.00;;
15858;SDS011;8029;52.202;7.308;2023-02-21T08:14:28;17.83;;;15.13;;
15858;SDS011;8029;52.202;7.308;2023-02-21T08:16:54;19.65;;;15.50;;
15858;SDS011;8029;52.202;7.308;2023-02-21T08:19:20;22.75;;;15.25;;
15858;SDS011;8029;52.202;7.308;2023-02-21T08:21:47;24.85;;;16.98;;
15858;SDS011;8029;52.202;7.308;2023-02-21T08:24:13;24.08;;;17.17;;
15858;SDS011;8029;52.202;7.308;2023-02-21T08:26:39;31.63;;;18.67;;
15858;SDS011;8029;52.202;7.308;2023-02-21T08:29:08;22.27;;;16.00;;
15858;SDS011;8029;52.202;7.308;2023-02-21T08:31:35;25.83;;;18.50;;
15858;SDS011;8029;52.202;7.308;2023-02-21T08:34:01;21.88;;;17.17;;
15858;SDS011;8029;52.202;7.308;2023-02-21T08:36:34;30.27;;;16.17;;
15858;SDS011;8029;52.202;7.308;2023-02-21T08:39:01;25.27;;;18.63;;
15858;SDS011;8029;52.202;7.308;2023-02-21T08:41:34;26.45;;;19.15;;
15858;SDS011;8029;52.202;7.308;2023-02-21T08:44:00;27.27;;;17.25;;
15858;SDS011;8029;52.202;7.308;2023-02-21T08:46:26;26.35;;;19.52;;
15858;SDS011;8029;52.202;7.308;2023-02-21T08:48:52;27.63;;;19.85;;
15858;SDS011;8029;52.202;7.308;2023-02-21T08:51:23;30.88;;;18.92;;
15858;SDS011;8029;52.202;7.308;2023-02-21T08:53:48;29.75;;;17.33;;
15858;SDS011;8029;52.202;7.308;2023-02-21T08:56:17;24.20;;;18.13;;
15858;SDS011;8029;52.202;7.308;2023-02-21T08:58:43;27.45;;;19.10;;
15858;SDS011;8029;52.202;7.308;2023-02-21T09:01:09;23.80;;;16.88;;
15858;SDS011;8029;52.202;7.308;2023-02-21T09:03:35;25.52;;;18.85;;
15858;SDS011;8029;52.202;7.308;2023-02-21T09:06:01;26.08;;;19.13;;
15858;SDS011;8029;52.202;7.308;2023-02-21T09:08:27;31.40;;;20.65;;
15858;SDS011;8029;52.202;7.308;2023-02-21T09:10:55;27.58;;;16.73;;
15858;SDS011;8029;52.202;7.308;2023-02-21T09:13:24;38.42;;;21.80;;
15858;SDS011;8029;52.202;7.308;2023-02-21T09:15:50;29.85;;;17.80;;
15858;SDS011;8029;52.202;7.308;2023-02-21T09:18:17;24.02;;;18.20;;
15858;SDS011;8029;52.202;7.308;2023-02-21T09:20:43;28.33;;;17.52;;
15858;SDS011;8029;52.202;7.308;2023-02-21T09:23:16;28.17;;;18.50;;
15858;SDS011;8029;52.202;7.308;2023-02-21T09:25:45;25.40;;;19.55;;
15858;SDS011;8029;52.202;7.308;2023-02-21T09:28:12;29.65;;;19.60;;
15858;SDS011;8029;52.202;7.308;2023-02-21T09:30:38;31.15;;;21.42;;
15858;SDS011;8029;52.202;7.308;2023-02-21T09:33:04;21.63;;;16.30;;
15858;SDS011;8029;52.202;7.308;2023-02-21T09:35:30;23.05;;;16.85;;
15858;SDS011;8029;52.202;7.308;2023-02-21T09:37:56;26.17;;;17.05;;
15858;SDS011;8029;52.202;7.308;2023-02-21T09:40:26;26.70;;;15.45;;
15858;SDS011;8029;52.202;7.308;2023-02-21T09:42:55;21.77;;;15.52;;
15858;SDS011;8029;52.202;7.308;2023-02-21T09:45:22;24.20;;;16.23;;
15858;SDS011;8029;52.202;7.308;2023-02-21T09:47:50;25.98;;;18.02;;
15858;SDS011;8029;52.202;7.308;2023-02-21T09:50:17;29.90;;;19.08;;
15858;SDS011;8029;52.202;7.308;2023-02-21T09:52:43;21.70;;;16.98;;
15858;SDS011;8029;52.202;7.308;2023-02-21T09:55:32;23.88;;;14.73;;
15858;SDS011;8029;52.202;7.308;2023-02-21T09:57:59;33.53;;;16.90;;
15858;SDS011;8029;52.202;7.308;2023-02-21T10:00:28;22.88;;;17.83;;
15858;SDS011;8029;52.202;7.308;2023-02-21T10:03:04;31.00;;;18.98;;
15858;SDS011;8029;52.202;7.308;2023-02-21T10:05:38;30.33;;;17.35;;
15858;SDS011;8029;52.202;7.308;2023-02-21T10:08:08;23.70;;;17.63;;
15858;SDS011;8029;52.202;7.308;2023-02-21T10:10:46;23.48;;;15.98;;
15858;SDS011;8029;52.202;7.308;2023-02-21T10:13:21;19.83;;;15.75;;
15858;SDS011;8029;52.202;7.308;2023-02-21T10:18:31;22.55;;;16.35;;
15858;SDS011;8029;52.202;7.308;2023-02-21T10:21:00;20.38;;;14.32;;
15858;SDS011;8029;52.202;7.308;2023-02-21T10:25:56;22.80;;;15.75;;
15858;SDS011;8029;52.202;7.308;2023-02-21T10:28:24;35.25;;;19.45;;
15858;SDS011;8029;52.202;7.308;2023-02-21T10:30:51;18.60;;;14.73;;
15858;SDS011;8029;52.202;7.308;2023-02-21T10:33:18;16.85;;;14.98;;
15858;SDS011;8029;52.202;7.308;2023-02-21T10:35:44;40.42;;;14.50;;
15858;SDS011;8029;52.202;7.308;2023-02-21T10:38:11;18.27;;;13.98;;
15858;SDS011;8029;52.202;7.308;2023-02-21T10:40:43;23.05;;;14.82;;
15858;SDS011;8029;52.202;7.308;2023-02-21T10:48:09;17.73;;;13.93;;
15858;SDS011;8029;52.202;7.308;2023-02-21T10:53:08;21.75;;;13.35;;
15858;SDS011;8029;52.202;7.308;2023-02-21T10:55:34;15.40;;;12.52;;
15858;SDS011;8029;52.202;7.308;2023-02-21T10:58:08;16.40;;;13.15;;
15858;SDS011;8029;52.202;7.308;2023-02-21T11:00:36;30.10;;;13.50;;
15858;SDS011;8029;52.202;7.308;2023-02-21T11:03:04;18.60;;;13.63;;
15858;SDS011;8029;52.202;7.308;2023-02-21T11:05:30;21.00;;;14.77;;
15858;SDS011;8029;52.202;7.308;2023-02-21T11:07:58;17.98;;;12.50;;
15858;SDS011;8029;52.202;7.308;2023-02-21T11:10:29;16.27;;;13.40;;
15858;SDS011;8029;52.202;7.308;2023-02-21T11:13:06;16.17;;;12.75;;
15858;SDS011;8029;52.202;7.308;2023-02-21T11:15:32;15.93;;;11.65;;
15858;SDS011;8029;52.202;7.308;2023-02-21T11:18:06;17.17;;;11.88;;
15858;SDS011;8029;52.202;7.308;2023-02-21T11:20:37;15.80;;;12.88;;
15858;SDS011;8029;52.202;7.308;2023-02-21T11:23:03;15.98;;;13.13;;
15858;SDS011;8029;52.202;7.308;2023-02-21T11:25:32;17.10;;;12.90;;
15858;SDS011;8029;52.202;7.308;2023-02-21T11:28:16;14.82;;;12.27;;
15858;SDS011;8029;52.202;7.308;2023-02-21T11:30:47;18.65;;;14.32;;
15858;SDS011;8029;52.202;7.308;2023-02-21T11:33:16;16.85;;;12.15;;
15858;SDS011;8029;52.202;7.308;2023-02-21T11:35:45;14.68;;;11.40;;
15858;SDS011;8029;52.202;7.308;2023-02-21T11:43:44;23.83;;;12.70;;
15858;SDS011;8029;52.202;7.308;2023-02-21T11:46:15;16.00;;;11.00;;
15858;SDS011;8029;52.202;7.308;2023-02-21T11:52:21;14.57;;;10.32;;
15858;SDS011;8029;52.202;7.308;2023-02-21T11:54:24;13.55;;;10.07;;
15858;SDS011;8029;52.202;7.308;2023-02-21T11:56:58;31.35;;;10.63;;
15858;SDS011;8029;52.202;7.308;2023-02-21T12:02:11;13.98;;;10.02;;
15858;SDS011;8029;52.202;7.308;2023-02-21T12:07:16;14.48;;;10.98;;
15858;SDS011;8029;52.202;7.308;2023-02-21T12:10:02;12.57;;;9.00;;
15858;SDS011;8029;52.202;7.308;2023-02-21T12:12:32;11.38;;;8.25;;
15858;SDS011;8029;52.202;7.308;2023-02-21T12:17:50;12.93;;;8.40;;
15858;SDS011;8029;52.202;7.308;2023-02-21T12:26:04;9.90;;;7.75;;
15858;SDS011;8029;52.202;7.308;2023-02-21T12:28:52;12.05;;;7.93;;
15858;SDS011;8029;52.202;7.308;2023-02-21T12:31:25;7.55;;;6.10;;
15858;SDS011;8029;52.202;7.308;2023-02-21T12:41:33;8.95;;;6.82;;
15858;SDS011;8029;52.202;7.308;2023-02-21T12:49:38;11.73;;;6.68;;
15858;SDS011;8029;52.202;7.308;2023-02-21T12:52:14;11.25;;;7.93;;
15858;SDS011;8029;52.202;7.308;2023-02-21T12:54:51;6.05;;;5.43;;
15858;SDS011;8029;52.202;7.308;2023-02-21T12:57:31;9.10;;;6.93;;
15858;SDS011;8029;52.202;7.308;2023-02-21T13:05:19;9.98;;;5.07;;
15858;SDS011;8029;52.202;7.308;2023-02-21T13:07:48;5.97;;;5.38;;
15858;SDS011;8029;52.202;7.308;2023-02-21T13:10:18;6.32;;;5.07;;
15858;SDS011;8029;52.202;7.308;2023-02-21T13:15:25;5.70;;;4.45;;
15858;SDS011;8029;52.202;7.308;2023-02-21T13:18:08;11.15;;;7.25;;
15858;SDS011;8029;52.202;7.308;2023-02-21T13:20:38;10.13;;;5.85;;
15858;SDS011;8029;52.202;7.308;2023-02-21T13:26:23;5.22;;;4.30;;
15858;SDS011;8029;52.202;7.308;2023-02-21T13:28:53;5.07;;;4.07;;
15858;SDS011;8029;52.202;7.308;2023-02-21T13:31:23;5.57;;;4.68;;
15858;SDS011;8029;52.202;7.308;2023-02-21T13:33:51;4.03;;;3.55;;
15858;SDS011;8029;52.202;7.308;2023-02-21T13:39:11;7.28;;;5.63;;
15858;SDS011;8029;52.202;7.308;2023-02-21T13:41:37;3.53;;;3.17;;
15858;SDS011;8029;52.202;7.308;2023-02-21T13:44:05;6.90;;;3.65;;
15858;SDS011;8029;52.202;7.308;2023-02-21T13:51:49;6.45;;;3.85;;
15858;SDS011;8029;52.202;7.308;2023-02-21T13:54:21;4.38;;;3.55;;
15858;SDS011;8029;52.202;7.308;2023-02-21T13:56:47;3.83;;;3.47;;
15858;SDS011;8029;52.202;7.308;2023-02-21T14:01:47;4.85;;;3.60;;
15858;SDS011;8029;52.202;7.308;2023-02-21T14:06:58;4.15;;;3.75;;
15858;SDS011;8029;52.202;7.308;2023-02-21T14:09:24;4.00;;;3.35;;
15858;SDS011;8029;52.202;7.308;2023-02-21T14:11:51;3.75;;;3.30;;
15858;SDS011;8029;52.202;7.308;2023-02-21T14:16:52;6.43;;;3.35;;
15858;SDS011;8029;52.202;7.308;2023-02-21T14:21:48;9.30;;;3.97;;
15858;SDS011;8029;52.202;7.308;2023-02-21T14:24:18;5.40;;;4.00;;
15858;SDS011;8029;52.202;7.308;2023-02-21T14:26:50;5.15;;;4.20;;
15858;SDS011;8029;52.202;7.308;2023-02-21T14:34:31;6.10;;;3.53;;
15858;SDS011;8029;52.202;7.308;2023-02-21T14:37:33;4.35;;;3.65;;
15858;SDS011;8029;52.202;7.308;2023-02-21T14:39:52;5.13;;;4.32;;
15858;SDS011;8029;52.202;7.308;2023-02-21T14:42:25;4.25;;;3.85;;
15858;SDS011;8029;52.202;7.308;2023-02-21T14:47:23;3.85;;;3.42;;
15858;SDS011;8029;52.202;7.308;2023-02-21T14:49:56;4.80;;;3.85;;
15858;SDS011;8029;52.202;7.308;2023-02-21T15:02:40;5.82;;;4.55;;
15858;SDS011;8029;52.202;7.308;2023-02-21T15:08:01;5.95;;;4.25;;
15858;SDS011;8029;52.202;7.308;2023-02-21T15:10:31;5.20;;;4.57;;
15858;SDS011;8029;52.202;7.308;2023-02-21T15:13:01;5.55;;;4.45;;
15858;SDS011;8029;52.202;7.308;2023-02-21T15:15:37;8.10;;;4.97;;
15858;SDS011;8029;52.202;7.308;2023-02-21T15:18:05;7.90;;;4.40;;
15858;SDS011;8029;52.202;7.308;2023-02-21T15:20:32;6.35;;;4.55;;
15858;SDS011;8029;52.202;7.308;2023-02-21T15:25:34;6.15;;;4.80;;
15858;SDS011;8029;52.202;7.308;2023-02-21T15:28:02;8.35;;;4.55;;
15858;SDS011;8029;52.202;7.308;2023-02-21T15:33:22;7.28;;;5.88;;
15858;SDS011;8029;52.202;7.308;2023-02-21T15:35:52;5.20;;;4.00;;
15858;SDS011;8029;52.202;7.308;2023-02-21T15:38:21;5.32;;;4.47;;
15858;SDS011;8029;52.202;7.308;2023-02-21T15:40:48;5.85;;;4.85;;
15858;SDS011;8029;52.202;7.308;2023-02-21T15:43:23;18.60;;;5.65;;
15858;SDS011;8029;52.202;7.308;2023-02-21T15:45:49;5.45;;;4.03;;
15858;SDS011;8029;52.202;7.308;2023-02-21T15:48:17;6.70;;;5.18;;
15858;SDS011;8029;52.202;7.308;2023-02-21T15:50:43;5.90;;;4.50;;
15858;SDS011;8029;52.202;7.308;2023-02-21T15:55:43;4.90;;;3.88;;
15858;SDS011;8029;52.202;7.308;2023-02-21T16:00:39;7.90;;;6.22;;
15858;SDS011;8029;52.202;7.308;2023-02-21T16:05:50;5.97;;;4.40;;
15858;SDS011;8029;52.202;7.308;2023-02-21T16:08:16;11.35;;;7.28;;
15858;SDS011;8029;52.202;7.308;2023-02-21T16:10:43;6.95;;;4.82;;
15858;SDS011;8029;52.202;7.308;2023-02-21T16:13:09;8.50;;;5.97;;
15858;SDS011;8029;52.202;7.308;2023-02-21T16:15:37;5.57;;;4.70;;
15858;SDS011;8029;52.202;7.308;2023-02-21T16:18:08;8.18;;;6.20;;
15858;SDS011;8029;52.202;7.308;2023-02-21T16:20:36;7.95;;;5.75;;
15858;SDS011;8029;52.202;7.308;2023-02-21T16:28:27;8.38;;;5.05;;
15858;SDS011;8029;52.202;7.308;2023-02-21T16:30:54;9.98;;;5.80;;
15858;SDS011;8029;52.202;7.308;2023-02-21T16:33:22;5.95;;;5.28;;
15858;SDS011;8029;52.202;7.308;2023-02-21T16:35:48;7.68;;;5.43;;
15858;SDS011;8029;52.202;7.308;2023-02-21T16:38:16;5.97;;;4.68;;
15858;SDS011;8029;52.202;7.308;2023-02-21T16:40:42;12.45;;;6.15;;
15858;SDS011;8029;52.202;7.308;2023-02-21T16:43:14;5.97;;;4.95;;
15858;SDS011;8029;52.202;7.308;2023-02-21T16:45:40;7.38;;;4.35;;
15858;SDS011;8029;52.202;7.308;2023-02-21T16:48:09;6.75;;;5.15;;
15858;SDS011;8029;52.202;7.308;2023-02-21T16:50:38;7.38;;;5.47;;
15858;SDS011;8029;52.202;7.308;2023-02-21T16:53:05;7.80;;;5.70;;
15858;SDS011;8029;52.202;7.308;2023-02-21T16:55:36;6.47;;;5.80;;
15858;SDS011;8029;52.202;7.308;2023-02-21T16:58:03;9.00;;;6.43;;
15858;SDS011;8029;52.202;7.308;2023-02-21T17:00:30;7.60;;;5.70;;
15858;SDS011;8029;52.202;7.308;2023-02-21T17:02:57;6.10;;;5.50;;
15858;SDS011;8029;52.202;7.308;2023-02-21T17:05:23;11.40;;;7.45;;
15858;SDS011;8029;52.202;7.308;2023-02-21T17:07:49;10.00;;;6.93;;
15858;SDS011;8029;52.202;7.308;2023-02-21T17:10:17;9.82;;;8.57;;
15858;SDS011;8029;52.202;7.308;2023-02-21T17:12:43;9.25;;;7.50;;
15858;SDS011;8029;52.202;7.308;2023-02-21T17:15:09;8.65;;;6.13;;
15858;SDS011;8029;52.202;7.308;2023-02-21T17:17:36;7.63;;;6.72;;
15858;SDS011;8029;52.202;7.308;2023-02-21T17:20:03;9.40;;;6.68;;
15858;SDS011;8029;52.202;7.308;2023-02-21T17:22:30;12.13;;;8.75;;
15858;SDS011;8029;52.202;7.308;2023-02-21T17:24:57;10.70;;;8.38;;
15858;SDS011;8029;52.202;7.308;2023-02-21T17:27:23;10.43;;;7.22;;